Time;durP1;ratioP1;P1;durP2;ratioP2;P2;SDS_P1;SDS_P2;PMS_P1;PMS_P2;Temp;Humidity;BMP_temperature;BMP_pressure;BME280_temperature;BME280_humidity;BME280_pressure;Samples;Min_cycle;Max_cycle;Signal;HPM_P1;HPM_P2
2023/06/12 00:01:36;;;;;;;2.53;1.75;;;;;;;20.05;58.96;101491.84;6197557;28;20058;-80
2023/06/12 00:04:37;;;;;;;2.70;1.83;;;;;;;19.98;59.52;101486.19;6205635;28;20182;-80
2023/06/12 00:07:39;;;;;;;13.60;2.60;;;;;;;19.96;59.58;101484.59;6182760;28;20435;-77
2023/06/12 00:10:41;;;;;;;3.63;2.10;;;;;;;19.91;59.70;101484.97;6181716;28;20057;-77
2023/06/12 00:13:44;;;;;;;2.95;2.17;;;;;;;19.84;60.12;101481.09;6181651;28;20077;-78
2023/06/12 00:16:47;;;;;;;2.72;1.88;;;;;;;19.87;60.28;101480.00;6181968;28;20057;-79
2023/06/12 00:19:49;;;;;;;4.10;2.00;;;;;;;19.84;60.56;101486.44;6181198;28;20380;-77
2023/06/12 00:22:50;;;;;;;7.25;1.70;;;;;;;19.83;61.05;101479.41;6181897;28;20046;-77
2023/06/12 00:25:51;;;;;;;4.97;2.60;;;;;;;19.81;61.78;101488.50;6181649;28;20051;-78
2023/06/12 00:28:53;;;;;;;6.40;2.30;;;;;;;19.77;62.25;101485.25;6181444;28;20443;-78
2023/06/12 00:31:55;;;;;;;4.35;2.50;;;;;;;19.73;62.84;101486.44;6184757;28;20460;-80
2023/06/12 00:34:57;;;;;;;4.72;2.50;;;;;;;19.65;62.98;101489.72;6205362;28;20043;-80
2023/06/12 00:37:59;;;;;;;4.18;2.00;;;;;;;19.65;63.00;101491.53;6205332;28;20120;-80
2023/06/12 00:41:01;;;;;;;5.18;2.28;;;;;;;19.63;63.43;101490.84;6204975;28;20060;-77
2023/06/12 00:44:02;;;;;;;7.15;2.20;;;;;;;19.61;63.57;101495.41;6204621;28;20053;-77
2023/06/12 00:47:05;;;;;;;5.68;2.75;;;;;;;19.58;63.73;101493.84;6191597;28;20440;-77
2023/06/12 00:50:09;;;;;;;3.03;2.30;;;;;;;19.52;64.32;101488.97;6180402;28;20053;-78
2023/06/12 00:53:11;;;;;;;7.13;2.13;;;;;;;19.47;64.51;101491.16;6180955;28;20459;-77
2023/06/12 00:56:13;;;;;;;3.55;2.33;;;;;;;19.44;64.45;101476.25;6180697;28;20055;-77
2023/06/12 00:59:16;;;;;;;5.07;2.20;;;;;;;19.42;64.80;101472.84;6180887;28;20051;-77
2023/06/12 01:02:20;;;;;;;5.50;2.40;;;;;;;19.42;65.16;101477.34;6190492;28;20053;-77
2023/06/12 01:05:28;;;;;;;5.53;2.90;;;;;;;19.40;65.13;101476.63;6188862;28;20051;-78
2023/06/12 01:08:35;;;;;;;4.32;2.50;;;;;;;19.31;65.52;101474.69;6186583;28;20058;-77
2023/06/12 01:11:37;;;;;;;3.65;2.15;;;;;;;19.34;65.65;101472.59;6179801;28;20360;-77
2023/06/12 01:14:38;;;;;;;4.22;2.45;;;;;;;19.32;65.54;101479.03;6190816;28;20367;-77
2023/06/12 01:17:41;;;;;;;5.95;2.33;;;;;;;19.30;66.21;101479.13;6195146;28;20300;-77
2023/06/12 01:20:43;;;;;;;6.63;2.42;;;;;;;19.21;66.49;101478.06;6198923;28;20046;-77
2023/06/12 01:24:12;;;;;;;3.75;2.10;;;;;;;19.13;66.56;101475.16;6204548;28;20046;-77
2023/06/12 01:27:32;;;;;;;3.65;2.35;;;;;;;19.10;66.59;101488.69;6195001;28;20046;-78
2023/06/12 01:30:54;;;;;;;3.58;2.33;;;;;;;18.97;67.28;101483.47;6203775;28;20046;-77
2023/06/12 01:34:02;;;;;;;5.78;2.17;;;;;;;18.91;68.20;101478.63;6204264;28;20050;-78
2023/06/12 01:37:13;;;;;;;4.90;2.13;;;;;;;18.93;67.58;101482.00;6203904;28;20415;-77
2023/06/12 01:40:17;;;;;;;3.28;2.20;;;;;;;18.94;67.90;101481.06;6203342;28;20351;-80
2023/06/12 01:43:18;;;;;;;3.55;2.28;;;;;;;18.94;68.07;101478.41;6203843;28;20050;-78
2023/06/12 01:46:19;;;;;;;3.92;2.35;;;;;;;18.92;67.91;101477.66;6203498;28;20054;-77
2023/06/12 01:49:22;;;;;;;4.72;2.40;;;;;;;18.94;68.19;101477.53;6202957;28;20061;-77
2023/06/12 01:52:23;;;;;;;5.35;2.75;;;;;;;18.86;68.51;101480.78;6203057;28;20359;-77
2023/06/12 01:55:25;;;;;;;5.13;2.35;;;;;;;18.79;69.48;101466.22;6203447;28;20435;-77
2023/06/12 01:58:26;;;;;;;4.70;2.55;;;;;;;18.71;69.29;101472.16;6203449;28;20069;-77
2023/06/12 02:01:29;;;;;;;5.13;2.50;;;;;;;18.63;70.36;101471.84;6202768;28;20054;-78
2023/06/12 02:04:32;;;;;;;4.88;2.53;;;;;;;18.59;70.10;101469.53;6203410;28;20046;-78
2023/06/12 02:07:33;;;;;;;4.88;2.53;;;;;;;18.47;70.61;101477.47;6203299;28;20436;-78
2023/06/12 02:10:34;;;;;;;7.07;2.67;;;;;;;18.47;70.85;101479.28;6202644;28;20050;-78
2023/06/12 02:13:36;;;;;;;7.65;2.50;;;;;;;18.45;71.17;101482.06;6203285;28;20050;-78
2023/06/12 02:16:37;;;;;;;3.58;2.35;;;;;;;18.46;71.02;101481.09;6202454;28;20054;-78
2023/06/12 02:19:40;;;;;;;5.18;2.72;;;;;;;18.42;70.82;101476.13;6202780;28;20050;-78
2023/06/12 02:22:41;;;;;;;3.42;2.63;;;;;;;18.42;71.05;101482.28;6203229;28;20057;-78
2023/06/12 02:25:43;;;;;;;4.15;2.45;;;;;;;18.37;71.38;101481.78;6202745;28;20359;-77
2023/06/12 02:28:44;;;;;;;3.95;2.40;;;;;;;18.35;71.34;101472.22;6202988;28;20050;-78
2023/06/12 02:31:46;;;;;;;5.75;3.20;;;;;;;18.36;71.38;101479.25;6202015;28;20133;-78
2023/06/12 02:34:49;;;;;;;5.30;2.72;;;;;;;18.34;71.48;101471.38;6202612;28;20340;-78
2023/06/12 02:37:51;;;;;;;4.07;2.53;;;;;;;18.23;72.10;101477.50;6202448;28;20572;-78
2023/06/12 02:40:52;;;;;;;5.15;2.92;;;;;;;18.21;72.25;101475.91;6199657;28;20050;-78
2023/06/12 02:43:53;;;;;;;4.35;2.45;;;;;;;18.15;72.08;101476.34;6194030;28;20050;-77
2023/06/12 02:46:56;;;;;;;4.07;2.70;;;;;;;18.12;73.06;101479.22;6197470;28;20588;-78
2023/06/12 02:49:59;;;;;;;5.18;3.40;;;;;;;18.05;73.47;101483.31;6183782;28;20355;-78
2023/06/12 02:53:00;;;;;;;6.35;3.15;;;;;;;17.99;74.03;101490.78;6178231;28;20054;-77
2023/06/12 02:56:01;;;;;;;8.95;3.63;;;;;;;17.87;74.03;101490.81;6177741;28;20061;-78
2023/06/12 02:59:03;;;;;;;3.95;2.67;;;;;;;17.81;74.88;101484.16;6183781;28;20054;-78
2023/06/12 03:02:05;;;;;;;5.00;3.05;;;;;;;17.85;74.81;101482.09;6193840;28;20133;-78
2023/06/12 03:05:08;;;;;;;7.15;3.28;;;;;;;17.85;74.53;101480.31;6195665;28;20054;-78
2023/06/12 03:08:10;;;;;;;5.05;3.08;;;;;;;17.75;74.59;101480.09;6185166;28;20455;-77
2023/06/12 03:11:11;;;;;;;4.32;2.80;;;;;;;17.63;76.12;101477.47;6182963;28;20053;-78
2023/06/12 03:14:13;;;;;;;4.22;2.42;;;;;;;17.54;76.42;101483.44;6186250;28;20058;-78
2023/06/12 03:17:14;;;;;;;5.00;3.30;;;;;;;17.50;76.90;101480.97;6186204;28;20129;-77
2023/06/12 03:20:17;;;;;;;6.75;3.20;;;;;;;17.47;76.90;101485.66;6193042;28;20053;-78
2023/06/12 03:23:19;;;;;;;6.22;3.17;;;;;;;17.44;77.65;101488.50;6185911;28;20046;-77
2023/06/12 03:26:20;;;;;;;5.63;2.83;;;;;;;17.42;78.18;101493.09;6193338;28;20055;-79
2023/06/12 03:29:22;;;;;;;4.95;2.80;;;;;;;17.40;78.61;101489.72;6177737;28;20364;-78
2023/06/12 03:32:23;;;;;;;4.85;3.10;;;;;;;17.44;79.00;101485.84;6184905;28;20058;-78
2023/06/12 03:35:26;;;;;;;5.07;2.92;;;;;;;17.50;78.47;101490.75;6192433;28;20436;-78
2023/06/12 03:38:27;;;;;;;5.55;2.90;;;;;;;17.46;78.97;101495.44;6185464;28;20050;-79
2023/06/12 03:41:31;;;;;;;5.38;2.63;;;;;;;17.50;78.47;101490.75;6181212;28;20132;-77
2023/06/12 03:44:32;;;;;;;4.35;2.92;;;;;;;17.47;79.68;101491.81;6182898;28;20054;-80
2023/06/12 03:47:34;;;;;;;9.05;3.03;;;;;;;17.41;80.28;101492.25;6180588;28;20050;-79
2023/06/12 03:50:37;;;;;;;6.45;2.83;;;;;;;17.44;80.31;101497.38;6183651;28;20039;-79
2023/06/12 03:53:39;;;;;;;5.80;3.67;;;;;;;17.44;80.17;101494.72;6183508;28;20065;-79
2023/06/12 03:56:41;;;;;;;6.05;3.40;;;;;;;17.43;80.28;101489.47;6172789;28;20046;-78
2023/06/12 03:59:42;;;;;;;6.35;3.20;;;;;;;17.48;80.50;101492.66;6159562;28;20077;-77
2023/06/12 04:02:44;;;;;;;8.00;3.85;;;;;;;17.49;80.44;101486.41;6174789;28;20046;-78
2023/06/12 04:05:47;;;;;;;7.25;4.03;;;;;;;17.49;79.99;101495.22;6176222;28;20058;-77
2023/06/12 04:08:48;;;;;;;13.05;3.78;;;;;;;17.53;79.27;101498.50;6178794;28;20058;-78
2023/06/12 04:11:50;;;;;;;5.68;3.13;;;;;;;17.51;78.86;101505.75;6175761;28;20072;-78
2023/06/12 04:14:51;;;;;;;5.43;3.13;;;;;;;17.47;78.70;101501.59;6189471;28;20042;-77
2023/06/12 04:17:53;;;;;;;5.22;3.25;;;;;;;17.49;79.00;101505.00;6195654;28;20054;-78
2023/06/12 04:20:56;;;;;;;6.65;3.08;;;;;;;17.52;79.03;101507.44;6200242;28;20054;-78
2023/06/12 04:23:58;;;;;;;3.47;2.88;;;;;;;17.56;79.59;101502.75;6194386;28;20042;-78
2023/06/12 04:27:01;;;;;;;9.07;3.17;;;;;;;17.59;79.50;101507.88;6192809;28;20407;-78
2023/06/12 04:30:03;;;;;;;7.68;3.38;;;;;;;17.60;79.35;101504.25;6187609;28;20422;-77
2023/06/12 04:33:04;;;;;;;6.88;3.55;;;;;;;17.65;79.71;101504.75;6184528;28;20047;-78
2023/06/12 04:36:13;;;;;;;7.85;4.13;;;;;;;17.66;79.01;101501.97;6197480;28;20053;-78
2023/06/12 04:39:14;;;;;;;8.68;4.40;;;;;;;17.68;79.72;101501.91;6192150;28;20054;-77
2023/06/12 04:42:16;;;;;;;6.38;3.80;;;;;;;17.74;80.40;101506.81;6185394;28;20068;-77
2023/06/12 04:45:19;;;;;;;5.80;3.53;;;;;;;17.78;80.44;101504.78;6190732;28;20054;-78
2023/06/12 04:48:21;;;;;;;4.25;3.20;;;;;;;17.85;80.58;101506.03;6194779;28;20058;-77
2023/06/12 04:51:24;;;;;;;6.03;3.47;;;;;;;17.87;80.73;101507.63;6191816;28;20057;-78
2023/06/12 04:54:25;;;;;;;6.32;3.47;;;;;;;17.90;81.11;101503.91;6187942;28;20134;-78
2023/06/12 04:57:27;;;;;;;5.93;3.55;;;;;;;17.97;81.24;101513.13;6190302;28;20371;-78
2023/06/12 05:00:30;;;;;;;5.82;3.65;;;;;;;18.02;79.74;101507.47;6195589;28;20141;-78
2023/06/12 05:03:33;;;;;;;6.18;3.92;;;;;;;18.04;80.18;101495.78;6195915;28;20066;-78
2023/06/12 05:06:37;;;;;;;5.50;3.60;;;;;;;18.07;81.06;101500.00;6188172;28;20058;-78
2023/06/12 05:09:38;;;;;;;6.50;3.70;;;;;;;18.12;81.29;101508.50;6201194;28;20159;-78
2023/06/12 05:12:40;;;;;;;6.35;3.53;;;;;;;18.17;81.34;101503.72;6199038;28;20046;-78
2023/06/12 05:15:41;;;;;;;5.47;3.40;;;;;;;18.17;82.08;101509.03;6193212;28;20046;-78
2023/06/12 05:18:43;;;;;;;6.28;3.60;;;;;;;18.19;82.65;101513.25;6193165;28;20376;-78
2023/06/12 05:21:47;;;;;;;11.40;4.03;;;;;;;18.18;82.35;101510.72;6195662;28;20053;-78
2023/06/12 05:24:48;;;;;;;6.32;3.75;;;;;;;18.24;81.03;101504.94;6180081;28;20135;-78
2023/06/12 05:27:49;;;;;;;8.60;4.25;;;;;;;18.30;80.79;101506.31;6179620;28;20058;-78
2023/06/12 05:30:51;;;;;;;8.40;4.15;;;;;;;18.30;79.57;101508.97;6199082;28;20051;-78
2023/06/12 05:33:52;;;;;;;7.10;3.65;;;;;;;18.33;79.79;101503.44;6191308;28;20046;-78
2023/06/12 05:36:55;;;;;;;7.43;3.83;;;;;;;18.36;79.85;101511.19;6184489;28;20057;-78
2023/06/12 05:39:56;;;;;;;5.15;3.90;;;;;;;18.38;79.85;101509.25;6188896;28;20145;-78
2023/06/12 05:42:59;;;;;;;9.55;4.50;;;;;;;18.41;80.17;101515.19;6189929;28;20432;-78
2023/06/12 05:46:00;;;;;;;10.25;5.22;;;;;;;18.42;80.68;101506.25;6189359;28;20344;-78
2023/06/12 05:49:02;;;;;;;7.80;4.80;;;;;;;18.44;80.54;101508.78;6189592;28;20057;-78
2023/06/12 05:52:06;;;;;;;5.28;3.67;;;;;;;18.47;80.31;101517.41;6187149;28;20066;-78
2023/06/12 05:55:08;;;;;;;7.63;4.10;;;;;;;18.51;80.20;101518.88;6188647;28;20058;-78
2023/06/12 05:58:09;;;;;;;4.30;3.35;;;;;;;18.54;78.82;101516.97;6179494;28;20051;-78
2023/06/12 06:01:11;;;;;;;5.82;3.78;;;;;;;18.60;78.80;101516.50;6186517;28;20137;-78
2023/06/12 06:04:13;;;;;;;8.20;3.83;;;;;;;18.66;77.99;101522.19;6187261;28;20435;-78
2023/06/12 06:07:17;;;;;;;5.93;3.55;;;;;;;18.68;79.98;101530.09;6178713;28;20051;-78
2023/06/12 06:10:19;;;;;;;9.27;3.65;;;;;;;18.74;78.31;101533.16;6178308;28;20053;-78
2023/06/12 06:13:20;;;;;;;4.93;3.20;;;;;;;18.80;77.93;101537.16;6203077;28;20046;-78
2023/06/12 06:16:22;;;;;;;6.30;3.95;;;;;;;18.86;76.64;101536.72;6192543;28;20491;-78
2023/06/12 06:19:23;;;;;;;7.65;4.50;;;;;;;18.89;78.33;101540.94;6192896;28;20149;-78
2023/06/12 06:22:26;;;;;;;8.88;4.45;;;;;;;18.91;78.69;101547.88;6187221;28;20047;-78
2023/06/12 06:25:29;;;;;;;10.10;4.80;;;;;;;18.93;80.54;101548.59;6195291;28;20050;-78
2023/06/12 06:28:30;;;;;;;7.47;4.85;;;;;;;18.96;80.46;101553.69;6194293;28;20078;-78
2023/06/12 06:31:31;;;;;;;8.63;4.32;;;;;;;19.03;80.57;101556.75;6197974;28;20046;-78
2023/06/12 06:34:33;;;;;;;6.97;4.00;;;;;;;19.10;79.47;101560.63;6185184;28;20365;-78
2023/06/12 06:37:35;;;;;;;5.93;3.92;;;;;;;19.20;78.60;101563.44;6196372;28;20054;-78
2023/06/12 06:40:37;;;;;;;7.25;4.00;;;;;;;19.29;78.76;101564.56;6191405;28;20356;-78
2023/06/12 06:43:38;;;;;;;5.88;4.40;;;;;;;19.38;75.68;101566.50;6177815;28;20440;-78
2023/06/12 06:46:39;;;;;;;7.03;4.30;;;;;;;19.49;75.38;101566.53;6179014;28;20055;-78
2023/06/12 06:49:41;;;;;;;10.30;4.75;;;;;;;19.58;75.64;101567.66;6176959;28;20050;-78
2023/06/12 06:52:44;;;;;;;5.65;3.85;;;;;;;19.65;76.23;101558.22;6193991;28;20057;-78
2023/06/12 06:55:45;;;;;;;7.03;4.50;;;;;;;19.77;72.81;101566.09;6201509;28;20359;-77
2023/06/12 06:58:48;;;;;;;9.27;4.25;;;;;;;19.83;72.09;101563.91;6201956;28;20050;-77
2023/06/12 07:01:50;;;;;;;8.65;4.15;;;;;;;19.91;74.59;101572.16;6189131;28;20061;-78
2023/06/12 07:04:51;;;;;;;8.57;3.88;;;;;;;19.93;73.98;101578.22;6198274;28;20046;-77
2023/06/12 07:07:54;;;;;;;6.18;4.20;;;;;;;19.94;75.48;101577.22;6201858;28;20053;-78
2023/06/12 07:10:56;;;;;;;6.20;3.72;;;;;;;19.96;74.70;101575.31;6201354;28;20050;-78
2023/06/12 07:13:58;;;;;;;6.50;3.80;;;;;;;20.05;71.07;101569.25;6201868;28;20057;-78
2023/06/12 07:16:59;;;;;;;6.95;4.05;;;;;;;20.13;72.57;101561.47;6200221;28;20046;-77
2023/06/12 07:20:01;;;;;;;6.22;3.83;;;;;;;20.21;72.90;101566.16;6194284;28;20049;-76
2023/06/12 07:23:03;;;;;;;10.05;3.80;;;;;;;20.27;72.43;101566.53;6194783;28;20080;-76
2023/06/12 07:26:05;;;;;;;9.57;3.72;;;;;;;20.32;71.00;101560.81;6198888;28;20050;-75
2023/06/12 07:29:06;;;;;;;4.57;3.28;;;;;;;20.38;70.03;101560.31;6201194;28;20061;-77
2023/06/12 07:32:09;;;;;;;7.22;3.75;;;;;;;20.48;70.27;101555.09;6200900;28;20362;-78
2023/06/12 07:35:11;;;;;;;5.22;3.28;;;;;;;20.53;68.90;101560.94;6194401;28;20341;-77
2023/06/12 07:38:14;;;;;;;6.30;3.47;;;;;;;20.60;71.66;101558.59;6189465;28;20058;-77
2023/06/12 07:41:15;;;;;;;5.18;3.35;;;;;;;20.66;69.63;101563.41;6181845;28;20367;-75
2023/06/12 07:44:16;;;;;;;5.75;3.05;;;;;;;20.80;65.26;101565.78;6193047;28;20050;-77
2023/06/12 07:47:18;;;;;;;6.20;3.25;;;;;;;20.94;64.34;101565.50;6191408;28;20051;-75
2023/06/12 07:50:20;;;;;;;5.70;3.45;;;;;;;21.03;64.15;101572.72;6176670;28;20062;-76
2023/06/12 07:53:23;;;;;;;7.93;3.10;;;;;;;21.09;61.66;101578.53;6200856;28;20043;-75
2023/06/12 07:56:24;;;;;;;5.30;3.35;;;;;;;21.17;61.27;101576.06;6205988;28;20046;-76
2023/06/12 07:59:26;;;;;;;8.05;4.18;;;;;;;21.26;61.61;101577.97;6201466;28;20458;-76
2023/06/12 08:02:31;;;;;;;6.15;3.53;;;;;;;21.30;61.47;101571.34;6195211;28;20057;-76
2023/06/12 08:05:34;;;;;;;7.45;3.65;;;;;;;21.35;63.71;101577.19;6195623;28;20054;-76
2023/06/12 08:08:41;;;;;;;4.78;3.22;;;;;;;21.39;63.90;101575.97;6195437;28;20055;-76
2023/06/12 08:11:43;;;;;;;6.13;3.40;;;;;;;21.52;62.99;101576.56;6198321;28;20042;-77
2023/06/12 08:14:47;;;;;;;7.13;3.75;;;;;;;21.51;63.89;101572.22;6197286;28;20050;-75
2023/06/12 08:17:48;;;;;;;9.02;3.60;;;;;;;21.51;64.56;101566.03;6199418;28;20458;-77
2023/06/12 08:20:50;;;;;;;6.30;3.70;;;;;;;21.57;62.94;101568.16;6188578;28;20447;-75
2023/06/12 08:23:53;;;;;;;10.13;4.22;;;;;;;21.61;64.25;101572.25;6193205;28;20130;-75
2023/06/12 08:26:55;;;;;;;5.18;3.20;;;;;;;21.69;65.14;101560.91;6199926;28;20053;-75
2023/06/12 08:29:56;;;;;;;6.95;3.70;;;;;;;22.07;59.63;101562.00;6195320;28;20046;-75
2023/06/12 08:32:58;;;;;;;5.65;3.15;;;;;;;22.31;57.64;101564.38;6199130;28;20050;-74
2023/06/12 08:35:59;;;;;;;6.05;3.28;;;;;;;22.37;56.93;101558.47;6199228;28;20050;-75
2023/06/12 08:39:02;;;;;;;4.25;3.10;;;;;;;22.45;55.09;101555.94;6191267;28;20055;-76
2023/06/12 08:42:06;;;;;;;5.78;3.38;;;;;;;22.76;52.90;101567.38;6191593;28;20058;-76
2023/06/12 08:45:10;;;;;;;7.93;3.70;;;;;;;22.78;53.26;101560.03;6193807;28;20062;-76
2023/06/12 08:48:13;;;;;;;5.28;3.45;;;;;;;22.79;54.23;101554.53;6196930;28;20050;-76
2023/06/12 08:51:15;;;;;;;6.13;3.00;;;;;;;22.73;53.70;101560.47;6199258;28;20054;-76
2023/06/12 08:54:19;;;;;;;5.22;3.25;;;;;;;22.82;54.28;101553.41;6204481;28;20061;-75
2023/06/12 08:57:21;;;;;;;5.32;3.30;;;;;;;22.88;52.95;101552.81;6191488;28;20053;-75
2023/06/12 09:00:22;;;;;;;5.10;2.90;;;;;;;22.94;51.57;101551.47;6199196;28;20057;-75
2023/06/12 09:03:23;;;;;;;5.13;3.38;;;;;;;22.97;53.10;101552.00;6202730;28;20050;-76
2023/06/12 09:06:26;;;;;;;4.28;3.25;;;;;;;23.23;52.77;101564.81;6195980;28;20050;-75
2023/06/12 09:09:38;;;;;;;5.32;3.70;;;;;;;23.25;51.10;101560.16;6195444;28;20357;-74
2023/06/12 09:12:43;;;;;;;7.25;4.05;;;;;;;23.21;53.59;101561.41;6180160;28;20073;-75
2023/06/12 09:15:50;;;;;;;7.18;3.58;;;;;;;23.25;50.09;101552.09;6181255;28;20047;-76
2023/06/12 09:18:53;;;;;;;4.95;3.17;;;;;;;23.42;48.46;101551.34;6192517;28;20074;-76
2023/06/12 09:21:54;;;;;;;4.90;3.10;;;;;;;23.52;49.24;101549.47;6202926;28;20091;-76
2023/06/12 09:24:58;;;;;;;6.40;3.40;;;;;;;23.72;46.94;101552.13;6195739;28;20078;-74
2023/06/12 09:28:00;;;;;;;6.45;3.10;;;;;;;23.77;46.76;101556.06;6195611;28;20051;-75
2023/06/12 09:31:01;;;;;;;4.97;2.70;;;;;;;23.74;47.39;101553.66;6203243;28;20053;-75
2023/06/12 09:34:03;;;;;;;5.25;3.13;;;;;;;23.70;47.22;101554.13;6187875;28;20057;-74
2023/06/12 09:37:08;;;;;;;4.35;2.80;;;;;;;23.73;44.77;101553.81;6188362;28;20129;-77
2023/06/12 09:40:13;;;;;;;4.88;2.85;;;;;;;23.79;44.43;101547.84;6201444;28;20050;-75
2023/06/12 09:43:16;;;;;;;4.90;2.75;;;;;;;23.95;41.36;101552.59;6203530;28;20336;-74
2023/06/12 09:46:24;;;;;;;4.35;2.72;;;;;;;23.94;41.72;101562.50;6201863;28;20057;-75
2023/06/12 09:49:25;;;;;;;4.93;2.47;;;;;;;24.13;39.82;101550.81;6179392;28;20575;-73
2023/06/12 09:52:27;;;;;;;4.22;2.80;;;;;;;24.11;41.79;101554.63;6178568;28;20067;-76
2023/06/12 09:55:31;;;;;;;7.07;2.50;;;;;;;24.25;40.57;101546.03;6179355;28;20428;-80
2023/06/12 09:58:36;;;;;;;4.10;2.63;;;;;;;24.09;43.17;101554.78;6187317;28;20057;-78
2023/06/12 10:01:39;;;;;;;3.20;2.42;;;;;;;24.22;42.69;101552.59;6178557;28;20136;-74
2023/06/12 10:04:46;;;;;;;8.70;2.85;;;;;;;24.37;39.60;101538.66;6179013;28;20062;-74
2023/06/12 10:07:53;;;;;;;5.97;2.65;;;;;;;24.39;41.29;101545.56;6179128;28;20166;-73
2023/06/12 10:10:56;;;;;;;3.38;2.30;;;;;;;24.52;40.80;101543.31;6191378;28;20077;-81
2023/06/12 10:13:58;;;;;;;6.10;2.53;;;;;;;24.64;40.45;101535.06;6194976;28;20448;-75
2023/06/12 10:17:01;;;;;;;4.50;3.00;;;;;;;24.60;40.02;101531.81;6200833;28;20057;-75
2023/06/12 10:20:04;;;;;;;5.45;2.72;;;;;;;24.48;38.75;101539.28;6188467;28;20058;-76
2023/06/12 10:23:06;;;;;;;3.42;2.30;;;;;;;24.37;39.33;101541.34;6178755;28;20403;-75
2023/06/12 10:26:09;;;;;;;4.60;2.20;;;;;;;24.79;37.81;101544.25;6180495;28;20123;-74
2023/06/12 10:29:27;;;;;;;4.82;2.78;;;;;;;24.89;37.29;101541.47;6193811;28;20366;-75
2023/06/12 10:32:33;;;;;;;3.72;2.13;;;;;;;25.08;38.04;101549.41;6178908;28;20053;-74
2023/06/12 10:35:35;;;;;;;4.25;2.40;;;;;;;25.25;37.31;101545.81;6192038;28;20470;-75
2023/06/12 10:38:44;;;;;;;4.53;1.92;;;;;;;25.20;38.23;101533.84;6202338;28;20050;-74
2023/06/12 10:41:57;;;;;;;4.00;2.63;;;;;;;25.33;36.96;101536.09;6185538;28;20054;-75
2023/06/12 10:45:01;;;;;;;3.83;2.00;;;;;;;25.54;37.04;101536.56;6186057;28;20058;-75
2023/06/12 10:48:14;;;;;;;5.70;2.53;;;;;;;25.61;35.02;101534.91;6188288;28;20051;-74
2023/06/12 10:51:15;;;;;;;4.93;2.60;;;;;;;25.54;36.59;101532.03;6190511;28;20462;-74
2023/06/12 10:54:16;;;;;;;5.05;2.10;;;;;;;25.44;37.48;101541.22;6193981;28;20057;-74
2023/06/12 10:57:28;;;;;;;3.28;2.10;;;;;;;25.50;35.12;101533.34;6193518;28;20054;-75
2023/06/12 11:00:32;;;;;;;4.50;2.65;;;;;;;25.51;37.14;101526.13;6191906;28;20051;-74
2023/06/12 11:03:34;;;;;;;5.03;2.10;;;;;;;25.63;36.27;101524.84;6196502;28;20104;-74
2023/06/12 11:06:36;;;;;;;4.20;2.40;;;;;;;25.52;35.92;101523.25;6193997;28;20053;-73
2023/06/12 11:09:40;;;;;;;4.82;2.63;;;;;;;25.87;33.91;101525.97;6195046;28;20501;-74
2023/06/12 11:12:47;;;;;;;3.88;2.28;;;;;;;25.96;33.43;101514.22;6201771;28;20054;-74
2023/06/12 11:15:51;;;;;;;3.10;2.33;;;;;;;26.17;33.55;101524.56;6200093;28;20053;-72
2023/06/12 11:19:04;;;;;;;5.68;2.13;;;;;;;26.34;33.54;101522.72;6199490;28;20057;-73
2023/06/12 11:22:06;;;;;;;3.70;2.30;;;;;;;26.31;33.02;101521.22;6192777;28;20129;-73
2023/06/12 11:25:08;;;;;;;4.57;2.40;;;;;;;26.45;31.96;101525.16;6201619;28;20603;-73
2023/06/12 11:28:12;;;;;;;2.58;1.90;;;;;;;26.54;31.92;101506.09;6200739;28;20069;-74
2023/06/12 11:31:13;;;;;;;5.82;2.10;;;;;;;26.56;33.69;101509.47;6200877;28;20053;-74
2023/06/12 11:34:15;;;;;;;2.60;1.88;;;;;;;26.78;30.56;101502.56;6193640;28;20050;-74
2023/06/12 11:37:17;;;;;;;3.33;2.13;;;;;;;26.85;31.66;101512.69;6192850;28;20046;-73
2023/06/12 11:40:18;;;;;;;2.58;1.80;;;;;;;27.01;31.43;101507.25;6200608;28;20050;-73
2023/06/12 11:43:22;;;;;;;2.25;1.75;;;;;;;27.21;31.01;101499.69;6177279;28;20387;-74
2023/06/12 11:46:25;;;;;;;4.95;2.22;;;;;;;27.17;30.73;101504.56;6186957;28;20062;-74
2023/06/12 11:49:26;;;;;;;6.20;2.00;;;;;;;27.37;30.06;101494.22;6194250;28;20047;-74
2023/06/12 11:52:28;;;;;;;4.80;1.90;;;;;;;27.69;29.25;101495.09;6200639;28;20173;-73
2023/06/12 11:55:29;;;;;;;5.68;2.00;;;;;;;27.89;29.93;101500.94;6200902;28;20359;-74
2023/06/12 11:58:35;;;;;;;4.63;2.17;;;;;;;27.96;29.33;101505.47;6193020;28;20058;-74
2023/06/12 12:01:40;;;;;;;4.00;1.80;;;;;;;28.03;29.02;101508.31;6190103;28;20178;-74
2023/06/12 12:04:42;;;;;;;3.30;1.70;;;;;;;27.92;27.33;101503.31;6187402;28;20051;-74
2023/06/12 12:07:45;;;;;;;2.85;1.75;;;;;;;27.93;27.86;101500.41;6192923;28;20050;-73
2023/06/12 12:10:47;;;;;;;2.10;1.38;;;;;;;28.21;29.06;101489.97;6188245;28;20500;-73
2023/06/12 12:13:59;;;;;;;3.15;1.95;;;;;;;28.32;28.53;101491.41;6176970;28;20067;-73
2023/06/12 12:17:04;;;;;;;2.63;1.85;;;;;;;28.62;27.65;101486.97;6191439;28;20062;-73
2023/06/12 12:20:07;;;;;;;3.28;1.92;;;;;;;28.74;26.87;101485.50;6200122;28;20058;-74
2023/06/12 12:23:12;;;;;;;4.07;2.15;;;;;;;28.95;26.52;101482.13;6201187;28;20517;-73
2023/06/12 12:26:13;;;;;;;2.53;1.80;;;;;;;29.13;24.22;101478.22;6200566;28;20043;-73
2023/06/12 12:29:16;;;;;;;2.58;1.73;;;;;;;29.13;26.76;101483.63;6200903;28;20062;-73
2023/06/12 12:32:18;;;;;;;3.15;1.95;;;;;;;29.17;25.60;101487.66;6200009;28;20061;-74
2023/06/12 12:35:20;;;;;;;4.18;1.92;;;;;;;29.18;25.49;101490.16;6194827;28;20054;-73
2023/06/12 12:38:21;;;;;;;2.13;1.65;;;;;;;29.22;26.25;101479.81;6185843;28;20042;-74
2023/06/12 12:41:22;;;;;;;2.30;1.98;;;;;;;29.06;24.28;101470.81;6202755;28;20443;-73
2023/06/12 12:44:25;;;;;;;5.65;1.58;;;;;;;29.29;23.88;101469.91;6205084;28;20061;-73
2023/06/12 12:47:27;;;;;;;3.25;1.75;;;;;;;29.43;23.31;101476.34;6183329;28;20149;-73
2023/06/12 12:50:28;;;;;;;2.03;1.80;;;;;;;29.59;24.45;101464.50;6185431;28;20050;-73
2023/06/12 12:53:29;;;;;;;3.30;2.17;;;;;;;29.70;23.89;101467.53;6186985;28;20058;-73
2023/06/12 12:56:31;;;;;;;2.83;1.55;;;;;;;29.89;23.95;101468.84;6195282;28;20050;-73
2023/06/12 12:59:33;;;;;;;2.97;2.00;;;;;;;30.14;22.53;101463.06;6194667;28;20046;-73
2023/06/12 13:02:35;;;;;;;2.50;1.73;;;;;;;30.15;24.81;101462.88;6179750;28;20375;-73
2023/06/12 13:05:37;;;;;;;8.02;1.90;;;;;;;30.17;22.73;101462.69;6198216;28;20363;-73
2023/06/12 13:08:39;;;;;;;3.10;1.80;;;;;;;30.23;24.71;101476.31;6201620;28;20359;-73
2023/06/12 13:11:40;;;;;;;3.78;1.70;;;;;;;30.18;23.53;101456.22;6179876;28;20065;-74
2023/06/12 13:14:45;;;;;;;2.60;1.52;;;;;;;29.76;23.87;101445.13;6180159;28;20348;-73
2023/06/12 13:17:46;;;;;;;2.42;1.63;;;;;;;29.70;24.60;101445.03;6181368;28;20432;-73
2023/06/12 13:20:47;;;;;;;3.67;1.52;;;;;;;29.81;23.39;101445.38;6200215;28;20144;-73
2023/06/12 13:23:49;;;;;;;2.42;1.60;;;;;;;30.00;23.29;101443.94;6204299;28;20050;-74
2023/06/12 13:26:51;;;;;;;1.55;1.45;;;;;;;30.30;22.91;101438.41;6203851;28;20053;-73
2023/06/12 13:29:53;;;;;;;2.78;1.98;;;;;;;30.46;22.05;101446.25;6203387;28;20058;-72
2023/06/12 13:32:55;;;;;;;3.97;2.00;;;;;;;30.53;21.80;101444.47;6203853;28;20050;-73
2023/06/12 13:35:56;;;;;;;3.53;1.90;;;;;;;30.61;22.34;101440.75;6203857;28;20050;-74
2023/06/12 13:38:58;;;;;;;3.25;1.88;;;;;;;30.76;22.29;101446.97;6189242;28;20059;-74
2023/06/12 13:41:59;;;;;;;2.63;1.63;;;;;;;30.80;22.87;101434.69;6185126;28;20464;-73
2023/06/12 13:45:04;;;;;;;2.97;2.00;;;;;;;30.85;21.78;101439.50;6193557;28;20054;-74
2023/06/12 13:48:05;;;;;;;2.00;1.60;;;;;;;30.89;22.71;101443.50;6203308;28;20051;-73
2023/06/12 13:51:07;;;;;;;2.90;1.90;;;;;;;30.63;21.64;101441.41;6202545;28;20054;-74
2023/06/12 13:54:09;;;;;;;2.58;1.65;;;;;;;30.55;22.95;101433.41;6203265;28;20046;-73
2023/06/12 13:57:10;;;;;;;2.33;1.52;;;;;;;30.54;22.29;101431.72;6198278;28;20065;-74
2023/06/12 14:00:14;;;;;;;4.18;2.50;;;;;;;30.53;21.82;101430.91;6198149;28;20434;-74
2023/06/12 14:03:16;;;;;;;2.45;1.75;;;;;;;30.64;21.98;101431.38;6187863;28;20055;-74
2023/06/12 14:06:18;;;;;;;5.65;1.90;;;;;;;30.78;20.95;101431.31;6191746;28;20131;-74
2023/06/12 14:09:20;;;;;;;2.95;1.50;;;;;;;30.94;20.76;101435.59;6195316;28;20064;-74